Time;durP1;ratioP1;P1;durP2;ratioP2;P2;SDS_P1;SDS_P2;PMS_P1;PMS_P2;Temp;Humidity;BMP_temperature;BMP_pressure;BME280_temperature;BME280_humidity;BME280_pressure;Samples;Min_cycle;Max_cycle;Signal;HPM_P1;HPM_P2
2023/08/13 00:00:15;;;;;;;4.82;3.80;;;;;;;20.52;69.66;95598.75;5047700;28;20232;-70
2023/08/13 00:02:40;;;;;;;7.40;3.88;;;;;;;20.53;69.22;95610.22;5018001;28;20758;-70
2023/08/13 00:05:06;;;;;;;4.80;3.92;;;;;;;20.54;69.06;95606.50;5014168;28;20232;-70
2023/08/13 00:07:32;;;;;;;5.45;3.65;;;;;;;20.69;67.85;95609.38;5028366;28;20230;-70
2023/08/13 00:09:57;;;;;;;5.97;3.90;;;;;;;20.61;70.15;95607.94;5045448;28;20787;-70
2023/08/13 00:12:23;;;;;;;5.45;3.75;;;;;;;20.42;70.46;95616.44;5016351;28;20235;-70
2023/08/13 00:14:48;;;;;;;5.47;3.85;;;;;;;20.21;70.94;95625.09;5011538;28;20229;-71
2023/08/13 00:17:14;;;;;;;6.10;3.80;;;;;;;20.10;72.15;95621.50;5027126;28;20229;-70
2023/08/13 00:19:39;;;;;;;4.63;3.80;;;;;;;20.15;72.45;95616.25;5036921;28;20886;-70
2023/08/13 00:22:05;;;;;;;6.40;3.40;;;;;;;20.18;71.75;95623.72;5028823;28;20319;-70
2023/08/13 00:24:30;;;;;;;3.88;3.38;;;;;;;20.25;71.06;95618.31;5045877;28;20229;-71
2023/08/13 00:26:56;;;;;;;5.73;3.70;;;;;;;20.30;71.51;95623.69;5038555;28;20269;-70
2023/08/13 00:29:22;;;;;;;4.33;3.50;;;;;;;20.40;70.00;95615.84;5038229;28;20229;-71
2023/08/13 00:31:48;;;;;;;4.47;3.40;;;;;;;20.21;71.38;95617.13;5028934;28;20270;-71
2023/08/13 00:34:13;;;;;;;4.38;3.45;;;;;;;20.08;71.34;95616.41;5037828;28;20221;-70
2023/08/13 00:36:39;;;;;;;5.10;3.40;;;;;;;20.00;72.91;95614.16;5018889;28;20239;-70
2023/08/13 00:39:04;;;;;;;4.70;3.47;;;;;;;20.08;71.79;95619.06;5018565;28;20240;-70
2023/08/13 00:41:30;;;;;;;5.72;3.92;;;;;;;19.97;72.57;95622.59;5030126;28;20628;-70
2023/08/13 00:43:56;;;;;;;6.47;3.57;;;;;;;19.88;72.51;95621.38;5045006;28;20228;-70
2023/08/13 00:46:21;;;;;;;5.47;3.67;;;;;;;19.92;72.59;95625.16;5018982;28;20229;-71
2023/08/13 00:48:46;;;;;;;5.13;3.87;;;;;;;19.65;73.65;95615.41;5037191;28;20710;-70
2023/08/13 00:51:13;;;;;;;4.57;3.47;;;;;;;19.77;73.30;95619.63;5030762;28;20232;-71
2023/08/13 00:53:48;;;;;;;4.30;3.70;;;;;;;19.69;73.69;95611.22;5017309;28;20510;-70
2023/08/13 00:56:14;;;;;;;6.03;3.97;;;;;;;19.69;74.26;95614.69;5033059;28;20236;-70
2023/08/13 00:58:41;;;;;;;5.23;3.93;;;;;;;19.70;73.88;95611.00;5027804;28;20224;-71
2023/08/13 01:01:07;;;;;;;5.13;3.80;;;;;;;19.73;73.50;95609.69;5028114;28;20225;-70
2023/08/13 01:03:33;;;;;;;5.80;4.17;;;;;;;19.84;73.68;95606.97;5060718;28;20232;-71
2023/08/13 01:06:16;;;;;;;6.97;4.20;;;;;;;19.57;74.90;95613.94;5046918;28;20237;-71
2023/08/13 01:08:54;;;;;;;6.10;3.97;;;;;;;19.25;75.39;95608.25;5040068;28;20324;-70
2023/08/13 01:11:22;;;;;;;7.93;4.23;;;;;;;19.17;76.04;95605.16;5056576;28;20701;-70
2023/08/13 01:14:12;;;;;;;5.37;4.30;;;;;;;19.02;77.43;95605.66;5045542;28;20220;-71
2023/08/13 01:16:42;;;;;;;5.63;4.43;;;;;;;18.91;77.97;95603.84;5029873;28;20714;-71
2023/08/13 01:19:09;;;;;;;6.77;4.40;;;;;;;18.96;78.20;95603.16;5043967;28;20229;-69
2023/08/13 01:21:35;;;;;;;5.77;4.13;;;;;;;19.00;77.95;95602.44;5032767;28;20232;-71
2023/08/13 01:24:00;;;;;;;7.77;4.37;;;;;;;19.08;78.28;95598.63;5026545;28;20259;-69
2023/08/13 01:26:26;;;;;;;5.07;4.20;;;;;;;19.09;78.45;95601.03;5027009;28;20252;-71
2023/08/13 01:29:20;;;;;;;7.07;4.47;;;;;;;18.91;78.18;95603.03;5026215;28;20229;-69
2023/08/13 01:31:46;;;;;;;6.57;4.10;;;;;;;18.89;78.33;95600.59;5043411;28;20251;-70
2023/08/13 01:34:11;;;;;;;5.10;4.50;;;;;;;18.83;79.12;95602.38;5027390;28;20617;-75
2023/08/13 01:36:37;;;;;;;6.90;4.53;;;;;;;18.96;78.75;95600.50;5033480;28;20233;-75
2023/08/13 01:39:03;;;;;;;6.60;4.50;;;;;;;18.84;79.46;95608.50;5028970;28;20278;-75
2023/08/13 01:41:52;;;;;;;8.83;4.93;;;;;;;18.92;79.54;95602.00;5016623;28;20304;-76
2023/08/13 01:44:18;;;;;;;7.73;4.50;;;;;;;18.92;78.75;95604.63;5005798;28;20225;-74
2023/08/13 01:46:43;;;;;;;6.57;4.80;;;;;;;19.00;79.56;95606.94;5016061;28;20236;-75
2023/08/13 01:49:09;;;;;;;6.97;4.83;;;;;;;18.78;79.96;95610.22;5004518;28;20228;-75
2023/08/13 01:51:35;;;;;;;7.67;4.60;;;;;;;18.61;80.82;95598.72;5050942;28;20217;-73
2023/08/13 01:54:00;;;;;;;6.77;4.57;;;;;;;18.69;80.16;95598.34;5027961;28;20232;-75
2023/08/13 01:56:25;;;;;;;6.80;4.30;;;;;;;18.70;80.77;95599.97;5016181;28;20609;-75
2023/08/13 01:58:51;;;;;;;6.93;4.63;;;;;;;18.67;80.64;95595.13;5022077;28;20312;-75
2023/08/13 02:01:16;;;;;;;9.87;4.70;;;;;;;18.58;81.92;95596.50;5039496;28;20249;-74
2023/08/13 02:03:42;;;;;;;8.77;4.63;;;;;;;18.39;82.10;95608.25;5018995;28;20256;-75
2023/08/13 02:06:07;;;;;;;6.93;4.53;;;;;;;18.33;83.19;95605.72;5051250;28;20290;-74
2023/08/13 02:08:33;;;;;;;6.33;4.50;;;;;;;18.32;83.86;95601.47;5044086;28;20228;-75
2023/08/13 02:10:58;;;;;;;7.13;4.23;;;;;;;18.19;84.29;95599.84;5039319;28;20366;-74
2023/08/13 02:13:24;;;;;;;5.50;4.10;;;;;;;18.35;83.56;95606.28;5035590;28;20239;-74
2023/08/13 02:15:50;;;;;;;7.40;4.40;;;;;;;18.22;83.55;95599.41;5043371;28;20225;-73
2023/08/13 02:18:15;;;;;;;6.50;4.53;;;;;;;18.37;83.46;95601.56;5037376;28;20270;-74
2023/08/13 02:20:41;;;;;;;5.40;4.37;;;;;;;18.34;83.94;95597.53;5046102;28;20274;-74
2023/08/13 02:23:06;;;;;;;7.10;4.13;;;;;;;18.32;84.34;95599.59;5048269;28;20223;-74
2023/08/13 02:25:32;;;;;;;7.53;4.60;;;;;;;18.20;84.89;95596.16;5048525;28;20232;-75
2023/08/13 02:27:58;;;;;;;7.60;4.87;;;;;;;18.17;85.10;95601.94;5023510;28;20237;-75
2023/08/13 02:30:23;;;;;;;5.50;4.30;;;;;;;18.00;86.00;95595.69;5009100;28;20537;-75
2023/08/13 02:32:49;;;;;;;7.00;4.60;;;;;;;18.00;86.31;95599.16;5053174;28;20240;-74
2023/08/13 02:35:14;;;;;;;7.30;4.70;;;;;;;18.12;85.66;95604.44;5045622;28;20236;-75
2023/08/13 02:37:40;;;;;;;7.57;4.70;;;;;;;18.14;85.57;95600.53;5026710;28;20225;-74
2023/08/13 02:40:06;;;;;;;9.60;4.50;;;;;;;18.04;86.86;95597.66;5041751;28;20228;-75
2023/08/13 02:42:32;;;;;;;8.10;4.47;;;;;;;18.24;86.01;95607.09;5022116;28;20225;-75
2023/08/13 02:44:58;;;;;;;6.93;4.60;;;;;;;18.00;86.52;95608.94;5011614;28;20225;-75
2023/08/13 02:47:24;;;;;;;5.87;4.50;;;;;;;18.02;86.42;95609.50;5031062;28;20264;-74
2023/08/13 02:49:50;;;;;;;8.33;4.93;;;;;;;18.09;85.80;95608.38;5020847;28;20224;-74
2023/08/13 02:52:15;;;;;;;7.17;4.47;;;;;;;17.98;86.31;95603.06;5022814;28;20225;-75
2023/08/13 02:54:41;;;;;;;8.07;4.93;;;;;;;17.97;86.98;95606.72;5031935;28;20698;-75
2023/08/13 02:57:06;;;;;;;7.07;4.77;;;;;;;17.86;87.34;95611.00;5030905;28;20237;-74
2023/08/13 02:59:32;;;;;;;9.73;4.77;;;;;;;18.06;86.65;95611.47;5027013;28;20233;-75
2023/08/13 03:01:57;;;;;;;6.30;4.73;;;;;;;17.76;87.86;95613.38;5036821;28;20244;-75
2023/08/13 03:04:23;;;;;;;8.23;5.10;;;;;;;17.73;87.76;95618.31;5054923;28;20359;-74
2023/08/13 03:06:48;;;;;;;5.87;4.63;;;;;;;17.87;87.31;95614.41;5026181;28;20386;-73
2023/08/13 03:09:21;;;;;;;8.00;4.93;;;;;;;17.89;86.78;95612.34;5023191;28;20233;-75
2023/08/13 03:11:47;;;;;;;15.47;5.10;;;;;;;17.86;86.81;95620.78;5037465;28;20243;-74
2023/08/13 03:14:12;;;;;;;10.20;4.77;;;;;;;17.69;87.52;95622.44;5027880;28;20280;-75
2023/08/13 03:16:38;;;;;;;6.43;4.83;;;;;;;17.64;88.33;95619.66;5033173;28;20237;-75
2023/08/13 03:19:03;;;;;;;8.83;4.90;;;;;;;17.66;88.30;95626.34;5037252;28;20323;-75
2023/08/13 03:21:29;;;;;;;6.40;4.73;;;;;;;17.66;88.11;95621.06;5035115;28;20602;-75
2023/08/13 03:23:55;;;;;;;9.50;5.07;;;;;;;17.41;89.13;95620.38;5030296;28;20225;-73
2023/08/13 03:26:20;;;;;;;6.03;4.50;;;;;;;17.45;89.37;95614.41;5022146;28;20279;-74
2023/08/13 03:28:46;;;;;;;7.53;4.53;;;;;;;17.34;89.68;95614.34;5025087;28;20285;-75
2023/08/13 03:31:11;;;;;;;7.37;4.70;;;;;;;17.31;90.67;95622.75;5029751;28;20229;-74
2023/08/13 03:33:37;;;;;;;8.20;4.73;;;;;;;17.34;90.12;95614.34;5024004;28;20289;-75
2023/08/13 03:36:03;;;;;;;7.60;4.60;;;;;;;17.21;90.86;95609.22;5022898;28;20265;-74
2023/08/13 03:38:28;;;;;;;9.20;5.03;;;;;;;17.18;90.97;95618.41;5012872;28;20236;-75
2023/08/13 03:40:55;;;;;;;6.53;4.90;;;;;;;17.20;90.15;95610.25;5053918;28;20224;-74
2023/08/13 03:43:20;;;;;;;7.10;4.80;;;;;;;17.32;89.53;95603.19;5018983;28;20275;-75
2023/08/13 03:45:46;;;;;;;7.10;4.70;;;;;;;17.34;89.29;95609.84;5044066;28;20225;-74
2023/08/13 03:48:12;;;;;;;6.07;4.60;;;;;;;17.41;89.01;95615.88;5031290;28;20235;-74
2023/08/13 03:50:41;;;;;;;10.70;4.97;;;;;;;17.39;88.87;95619.78;5048294;28;20340;-75
2023/08/13 03:53:07;;;;;;;7.23;4.63;;;;;;;17.52;87.94;95622.28;5048397;28;20240;-74
2023/08/13 03:55:33;;;;;;;8.10;4.73;;;;;;;17.70;87.68;95624.03;5009033;28;20380;-75
2023/08/13 03:57:59;;;;;;;7.20;4.90;;;;;;;17.65;87.17;95622.06;5036740;28;20708;-74
2023/08/13 04:00:24;;;;;;;6.23;4.73;;;;;;;17.68;86.94;95626.94;5011995;28;20320;-74
2023/08/13 04:02:50;;;;;;;8.53;4.90;;;;;;;17.55;87.39;95621.84;5008180;28;20238;-74
2023/08/13 04:05:15;;;;;;;6.70;4.80;;;;;;;17.45;87.98;95625.00;5024569;28;20221;-74
2023/08/13 04:07:41;;;;;;;6.97;4.77;;;;;;;17.57;87.63;95630.34;5030061;28;20610;-73
2023/08/13 04:10:07;;;;;;;6.90;4.43;;;;;;;17.66;87.09;95625.53;5034048;28;20224;-74
2023/08/13 04:12:32;;;;;;;8.00;5.27;;;;;;;17.48;87.61;95629.81;5021560;28;20306;-75
2023/08/13 04:14:58;;;;;;;6.40;4.80;;;;;;;17.63;87.43;95623.34;5012400;28;20307;-75
2023/08/13 04:17:23;;;;;;;7.03;4.50;;;;;;;17.47;88.28;95630.88;5012929;28;20245;-75
2023/08/13 04:19:49;;;;;;;6.57;4.90;;;;;;;17.60;87.79;95634.41;5021998;28;20320;-74
2023/08/13 04:22:15;;;;;;;8.23;4.87;;;;;;;17.76;86.88;95631.91;5028059;28;20240;-75
2023/08/13 04:24:40;;;;;;;8.43;4.80;;;;;;;17.77;86.38;95638.03;5011953;28;20225;-74
2023/08/13 04:27:06;;;;;;;8.50;5.37;;;;;;;17.88;85.97;95645.19;5026378;28;20676;-74
2023/08/13 04:29:31;;;;;;;10.13;5.23;;;;;;;18.00;85.95;95651.31;5027912;28;20747;-74
2023/08/13 04:31:57;;;;;;;8.87;5.13;;;;;;;18.08;85.61;95653.63;5037172;28;20224;-74
2023/08/13 04:34:22;;;;;;;8.67;5.37;;;;;;;18.01;85.50;95650.25;5027537;28;20278;-74
2023/08/13 04:36:48;;;;;;;10.90;5.20;;;;;;;17.98;86.42;95658.69;5028705;28;20634;-73
2023/08/13 04:39:13;;;;;;;7.37;5.37;;;;;;;17.87;86.78;95659.44;5036810;28;20307;-74
2023/08/13 04:41:40;;;;;;;7.53;5.47;;;;;;;17.73;87.18;95650.91;5030369;28;20237;-74
2023/08/13 04:44:05;;;;;;;10.33;5.80;;;;;;;17.73;86.68;95652.72;5042894;28;20323;-73
2023/08/13 04:46:31;;;;;;;7.90;5.40;;;;;;;17.87;87.54;95659.44;5036460;28;20229;-75
2023/08/13 04:48:56;;;;;;;9.37;5.60;;;;;;;18.06;86.42;95658.34;5028095;28;20280;-74
2023/08/13 04:51:22;;;;;;;9.33;5.60;;;;;;;18.30;83.86;95662.66;5020576;28;20222;-74
2023/08/13 04:53:47;;;;;;;7.23;5.47;;;;;;;18.37;84.13;95665.19;5035601;28;20225;-74
2023/08/13 04:56:13;;;;;;;8.63;5.60;;;;;;;18.15;84.10;95667.56;5028621;28;20243;-73
2023/08/13 04:58:38;;;;;;;7.27;4.97;;;;;;;18.25;84.07;95669.66;5048737;28;20225;-74
2023/08/13 05:01:05;;;;;;;7.63;5.30;;;;;;;18.12;84.75;95670.69;5039813;28;20222;-70
2023/08/13 05:03:31;;;;;;;11.03;6.00;;;;;;;18.16;84.05;95663.91;5031503;28;20765;-70
2023/08/13 05:05:57;;;;;;;7.67;5.60;;;;;;;18.13;84.83;95654.56;5030016;28;20236;-70
2023/08/13 05:08:23;;;;;;;8.33;5.27;;;;;;;18.14;84.32;95666.78;5010375;28;20249;-69
2023/08/13 05:10:49;;;;;;;7.13;5.37;;;;;;;18.48;83.56;95665.25;5043076;28;20228;-70
2023/08/13 05:13:14;;;;;;;12.50;5.77;;;;;;;19.24;80.35;95672.19;5017894;28;20317;-69
2023/08/13 05:15:41;;;;;;;9.50;5.70;;;;;;;20.79;73.76;95676.03;5036800;28;20376;-70
2023/08/13 05:18:07;;;;;;;7.63;5.07;;;;;;;20.05;75.17;95686.00;5023522;28;20722;-71
2023/08/13 05:20:33;;;;;;;7.63;5.33;;;;;;;20.02;75.46;95677.69;5043575;28;20224;-71
2023/08/13 05:22:58;;;;;;;9.13;5.57;;;;;;;20.82;71.88;95676.34;5053522;28;20233;-74
2023/08/13 05:25:25;;;;;;;7.50;4.93;;;;;;;21.58;68.97;95671.22;5067912;28;20596;-75
2023/08/13 05:27:50;;;;;;;6.70;5.13;;;;;;;20.46;72.76;95671.56;5054329;28;20296;-75
2023/08/13 05:30:16;;;;;;;6.65;4.82;;;;;;;20.14;73.29;95676.59;5043152;28;20243;-74
2023/08/13 05:32:41;;;;;;;8.87;5.10;;;;;;;19.33;77.19;95676.09;5044378;28;20229;-73
2023/08/13 05:35:07;;;;;;;7.33;4.87;;;;;;;19.69;77.06;95673.13;5029329;28;20224;-74
2023/08/13 05:37:33;;;;;;;8.43;4.73;;;;;;;19.90;76.11;95677.75;5030662;28;20713;-73
2023/08/13 05:39:58;;;;;;;7.63;4.90;;;;;;;20.35;74.49;95679.63;5040744;28;20614;-76
2023/08/13 05:42:24;;;;;;;7.20;5.20;;;;;;;20.66;71.98;95684.34;5016583;28;20240;-77
2023/08/13 05:44:50;;;;;;;6.88;4.93;;;;;;;20.91;69.88;95679.41;5015992;28;20225;-76
2023/08/13 05:47:15;;;;;;;9.05;4.93;;;;;;;20.41;73.67;95683.97;5047726;28;20258;-76
2023/08/13 05:49:41;;;;;;;7.75;5.13;;;;;;;20.22;73.54;95686.06;5016872;28;20235;-77
2023/08/13 05:52:06;;;;;;;9.95;5.47;;;;;;;19.92;74.91;95682.81;5043038;28;20314;-76
2023/08/13 05:54:32;;;;;;;8.68;5.57;;;;;;;20.07;75.57;95685.75;5058267;28;20240;-77
2023/08/13 05:56:57;;;;;;;8.27;5.80;;;;;;;20.00;76.31;95685.09;5025363;28;20237;-75
2023/08/13 05:59:23;;;;;;;10.97;5.77;;;;;;;20.04;76.71;95683.56;5033581;28;20239;-77
2023/08/13 06:01:48;;;;;;;8.73;5.90;;;;;;;20.09;76.03;95684.47;5031648;28;20310;-76
2023/08/13 06:04:14;;;;;;;9.73;5.60;;;;;;;19.98;76.18;95682.69;5042981;28;20229;-76
2023/08/13 06:06:40;;;;;;;10.20;6.10;;;;;;;20.10;74.98;95682.63;5023934;28;20233;-77
2023/08/13 06:09:05;;;;;;;8.38;6.03;;;;;;;19.98;75.82;95690.66;5014722;28;20259;-76
2023/08/13 06:11:31;;;;;;;9.63;6.47;;;;;;;20.00;75.40;95688.56;5026913;28;20229;-76
2023/08/13 06:13:56;;;;;;;9.33;6.53;;;;;;;20.08;74.96;95690.81;5042929;28;20613;-77
2023/08/13 06:16:22;;;;;;;11.67;5.90;;;;;;;20.15;75.75;95686.19;5043479;28;20232;-76
2023/08/13 06:18:47;;;;;;;7.63;6.10;;;;;;;20.17;75.20;95684.09;5025842;28;20246;-76
2023/08/13 06:21:13;;;;;;;10.50;6.43;;;;;;;20.15;74.98;95685.38;5042461;28;20229;-76
2023/08/13 06:23:38;;;;;;;9.98;6.43;;;;;;;20.24;74.98;95686.63;5025188;28;20221;-77
2023/08/13 06:26:06;;;;;;;9.10;5.70;;;;;;;20.32;74.30;95686.22;5044541;28;20232;-77
2023/08/13 06:28:32;;;;;;;11.83;5.97;;;;;;;20.39;74.33;95680.75;5047098;28;20217;-77
2023/08/13 06:30:57;;;;;;;11.02;5.80;;;;;;;20.48;73.70;95682.75;5029340;28;20224;-77
2023/08/13 06:33:23;;;;;;;12.10;5.50;;;;;;;20.51;74.02;95682.28;5032864;28;20819;-76
2023/08/13 06:35:48;;;;;;;12.73;6.17;;;;;;;20.41;72.97;95697.25;5025233;28;20229;-73
2023/08/13 06:38:14;;;;;;;10.97;5.70;;;;;;;20.53;73.47;95684.69;5026329;28;20229;-76
2023/08/13 06:40:40;;;;;;;11.70;5.83;;;;;;;20.56;74.18;95682.34;5029234;28;20240;-77
2023/08/13 06:43:05;;;;;;;8.93;5.95;;;;;;;20.61;72.85;95685.06;5026305;28;20237;-76
2023/08/13 06:45:31;;;;;;;9.05;5.60;;;;;;;20.71;71.83;95682.56;5010418;28;20230;-77
2023/08/13 06:47:57;;;;;;;9.52;5.57;;;;;;;20.83;71.72;95682.47;5011742;28;20225;-77
2023/08/13 06:50:22;;;;;;;9.55;5.60;;;;;;;20.95;72.19;95685.84;5028088;28;20218;-76
2023/08/13 06:52:48;;;;;;;9.13;5.60;;;;;;;20.97;72.23;95680.28;5041862;28;20223;-74
2023/08/13 06:55:14;;;;;;;10.73;5.43;;;;;;;21.05;71.11;95679.88;5045734;28;20605;-77
2023/08/13 06:57:39;;;;;;;9.50;5.13;;;;;;;21.11;69.47;95682.38;5012498;28;20237;-76
2023/08/13 07:00:05;;;;;;;10.10;5.40;;;;;;;21.11;69.58;95679.69;5039771;28;20226;-77
2023/08/13 07:02:31;;;;;;;10.27;5.20;;;;;;;21.15;69.13;95669.38;5031633;28;20240;-76
2023/08/13 07:04:57;;;;;;;10.70;5.27;;;;;;;21.24;67.69;95667.88;5018906;28;20629;-76
2023/08/13 07:07:22;;;;;;;8.27;4.88;;;;;;;21.38;68.20;95677.13;5050150;28;20230;-77
2023/08/13 07:09:48;;;;;;;8.07;4.50;;;;;;;21.45;66.81;95673.22;5043936;28;20225;-77
2023/08/13 07:12:13;;;;;;;7.38;4.60;;;;;;;21.54;65.50;95670.94;5034352;28;20233;-76
2023/08/13 07:14:39;;;;;;;8.20;4.80;;;;;;;21.65;64.91;95663.84;5018191;28;20702;-76
2023/08/13 07:17:05;;;;;;;9.65;4.68;;;;;;;21.65;64.66;95666.50;5013484;28;20325;-76
2023/08/13 07:19:32;;;;;;;6.95;4.78;;;;;;;21.74;64.76;95665.81;5051863;28;20626;-76
2023/08/13 07:21:58;;;;;;;7.32;4.85;;;;;;;21.77;64.64;95667.19;5019224;28;20225;-76
2023/08/13 07:24:23;;;;;;;8.23;4.50;;;;;;;21.86;62.34;95658.50;5055379;28;20228;-77
2023/08/13 07:26:49;;;;;;;9.75;5.10;;;;;;;21.82;63.02;95668.03;5063997;28;20225;-75
2023/08/13 07:29:15;;;;;;;7.53;4.70;;;;;;;21.83;63.55;95655.53;5029909;28;20229;-80
2023/08/13 07:31:40;;;;;;;8.38;4.85;;;;;;;21.89;63.84;95657.22;5022092;28;20805;-76
2023/08/13 07:34:06;;;;;;;5.32;4.10;;;;;;;22.13;62.41;95664.66;5040780;28;20308;-76
2023/08/13 07:36:32;;;;;;;6.50;4.35;;;;;;;22.35;60.00;95663.75;5035572;28;20336;-76
2023/08/13 07:38:57;;;;;;;7.72;4.50;;;;;;;22.47;59.53;95662.53;5032000;28;20835;-77
2023/08/13 07:41:23;;;;;;;5.88;4.40;;;;;;;22.48;59.10;95666.78;5045508;28;20233;-76
2023/08/13 07:43:49;;;;;;;6.28;4.22;;;;;;;22.47;59.36;95662.53;5028923;28;20778;-75
2023/08/13 07:46:14;;;;;;;7.60;4.47;;;;;;;22.52;58.94;95657.22;5015413;28;20301;-75
2023/08/13 07:48:40;;;;;;;5.70;4.50;;;;;;;22.59;58.75;95655.13;5035279;28;20789;-76
2023/08/13 07:51:05;;;;;;;9.05;4.50;;;;;;;22.65;59.32;95645.34;5053141;28;20224;-77
2023/08/13 07:53:31;;;;;;;7.57;4.28;;;;;;;22.64;59.24;95657.09;5044127;28;20229;-76
2023/08/13 07:55:57;;;;;;;6.18;4.07;;;;;;;22.78;59.04;95656.34;5029365;28;20256;-77
2023/08/13 07:58:22;;;;;;;8.32;4.05;;;;;;;22.97;58.86;95650.63;5023173;28;20308;-76
2023/08/13 08:00:48;;;;;;;6.13;4.03;;;;;;;22.94;58.48;95645.78;5036913;28;20213;-75
2023/08/13 08:03:14;;;;;;;5.97;3.90;;;;;;;22.93;58.16;95644.97;5036645;28;20225;-76
2023/08/13 08:05:41;;;;;;;8.40;4.22;;;;;;;22.99;57.69;95648.47;5010765;28;20222;-76
2023/08/13 08:08:06;;;;;;;6.20;4.10;;;;;;;23.15;59.40;95642.97;5032492;28;20312;-76
2023/08/13 08:10:32;;;;;;;6.10;4.07;;;;;;;23.24;59.28;95638.72;5034235;28;20335;-77
2023/08/13 08:12:57;;;;;;;8.30;4.30;;;;;;;23.37;56.65;95640.16;5011002;28;20260;-77
2023/08/13 08:15:25;;;;;;;5.63;3.95;;;;;;;23.49;56.38;95638.06;5005059;28;20229;-78
2023/08/13 08:17:51;;;;;;;5.60;3.97;;;;;;;23.42;57.85;95640.16;5042850;28;20256;-76
2023/08/13 08:20:16;;;;;;;6.43;3.97;;;;;;;23.63;55.83;95636.50;5027965;28;20278;-76
2023/08/13 08:22:42;;;;;;;5.05;3.88;;;;;;;23.83;54.62;95633.88;5034326;28;20248;-78
2023/08/13 08:25:08;;;;;;;4.78;3.83;;;;;;;23.84;54.42;95623.97;5044115;28;22285;-77
2023/08/13 08:27:34;;;;;;;7.80;3.90;;;;;;;23.85;55.22;95626.38;5061715;28;20221;-77
2023/08/13 08:29:59;;;;;;;5.47;4.22;;;;;;;23.86;56.20;95621.84;5028433;28;20243;-77
2023/08/13 08:32:25;;;;;;;5.00;3.90;;;;;;;23.78;56.18;95615.16;5062043;28;20339;-77
2023/08/13 08:34:50;;;;;;;6.68;4.20;;;;;;;23.91;55.96;95616.47;5013730;28;20279;-76
2023/08/13 08:37:16;;;;;;;6.93;3.90;;;;;;;24.13;54.15;95613.59;5014976;28;20685;-77
2023/08/13 08:39:42;;;;;;;6.78;3.75;;;;;;;24.13;54.42;95613.59;5029581;28;20225;-77
2023/08/13 08:42:07;;;;;;;6.22;4.00;;;;;;;24.03;54.77;95606.34;5030601;28;20240;-77
2023/08/13 08:44:33;;;;;;;5.97;3.65;;;;;;;24.17;54.73;95604.75;5025708;28;20225;-76
2023/08/13 08:46:58;;;;;;;6.72;3.92;;;;;;;24.39;53.93;95612.53;5021110;28;20244;-76
2023/08/13 08:49:24;;;;;;;5.70;3.85;;;;;;;24.45;53.84;95612.28;5026866;28;20582;-76
2023/08/13 08:51:50;;;;;;;5.00;3.80;;;;;;;24.62;51.70;95606.63;5024849;28;20314;-76
2023/08/13 08:54:16;;;;;;;6.28;3.90;;;;;;;24.70;50.92;95600.69;5030923;28;20316;-76
2023/08/13 08:56:42;;;;;;;5.53;4.10;;;;;;;24.83;50.65;95600.19;5031005;28;20241;-76
2023/08/13 08:59:07;;;;;;;4.72;3.80;;;;;;;24.88;51.60;95610.09;5002974;28;20603;-76
2023/08/13 09:01:33;;;;;;;5.15;3.67;;;;;;;24.85;51.38;95608.75;5034353;28;20248;-75
2023/08/13 09:03:59;;;;;;;7.78;3.97;;;;;;;24.74;51.18;95605.25;5047534;28;20228;-76
2023/08/13 09:06:51;;;;;;;5.05;3.88;;;;;;;24.84;50.77;95603.69;5034346;28;20626;-77
2023/08/13 09:09:17;;;;;;;4.65;3.50;;;;;;;25.00;50.17;95591.84;5051390;28;20426;-76
2023/08/13 09:11:43;;;;;;;5.80;3.97;;;;;;;25.08;49.75;95592.06;5013718;28;20710;-77
2023/08/13 09:14:08;;;;;;;7.30;3.90;;;;;;;25.16;48.27;95594.19;5012301;28;20241;-77
2023/08/13 09:16:36;;;;;;;7.25;4.10;;;;;;;25.26;48.60;95593.34;5010242;28;20320;-74
2023/08/13 09:19:02;;;;;;;6.38;4.00;;;;;;;25.23;49.62;95588.53;5026029;28;20243;-77
2023/08/13 09:21:29;;;;;;;6.55;3.80;;;;;;;25.35;49.05;95586.31;5036123;28;20229;-77
2023/08/13 09:23:55;;;;;;;6.40;4.22;;;;;;;25.55;48.87;95593.50;5038565;28;20229;-75
2023/08/13 09:26:20;;;;;;;4.80;3.92;;;;;;;25.54;48.95;95581.16;5011454;28;20286;-76
2023/08/13 09:28:46;;;;;;;6.13;3.72;;;;;;;25.62;47.17;95577.91;5026069;28;20213;-75
2023/08/13 09:31:12;;;;;;;6.93;4.03;;;;;;;25.75;48.75;95577.28;5031643;28;20229;-77
2023/08/13 09:33:37;;;;;;;7.53;4.05;;;;;;;25.74;48.06;95579.19;5032004;28;20221;-77
2023/08/13 09:36:03;;;;;;;5.22;3.78;;;;;;;25.82;49.26;95581.25;5045008;28;20236;-76
2023/08/13 09:38:29;;;;;;;5.68;3.85;;;;;;;25.80;48.64;95577.25;5046098;28;20331;-77
2023/08/13 09:40:54;;;;;;;6.78;3.90;;;;;;;25.81;49.46;95573.50;5020486;28;20737;-76
2023/08/13 09:43:21;;;;;;;6.07;3.92;;;;;;;25.95;48.59;95583.31;5033185;28;20225;-77
2023/08/13 09:45:47;;;;;;;5.55;4.00;;;;;;;25.83;47.46;95584.75;5030916;28;20232;-75
2023/08/13 09:48:12;;;;;;;4.97;3.95;;;;;;;25.64;49.25;95579.22;5010342;28;20233;-76
2023/08/13 09:50:41;;;;;;;7.35;3.95;;;;;;;25.55;48.88;95586.25;5026915;28;20726;-76
2023/08/13 09:53:12;;;;;;;5.80;3.83;;;;;;;25.30;49.55;95592.50;5046377;28;20316;-76
2023/08/13 09:55:44;;;;;;;4.53;3.80;;;;;;;25.16;51.31;95582.66;5015341;28;20263;-77
2023/08/13 09:58:11;;;;;;;4.43;3.67;;;;;;;25.04;51.71;95584.84;5025853;28;20221;-76
2023/08/13 10:00:36;;;;;;;4.15;3.70;;;;;;;24.95;52.29;95581.94;5010314;28;20232;-76
2023/08/13 10:03:02;;;;;;;5.60;4.20;;;;;;;24.87;52.21;95579.81;5010990;28;20236;-77
2023/08/13 10:05:30;;;;;;;8.00;3.80;;;;;;;24.89;50.32;95576.84;5046513;28;20221;-78
2023/08/13 10:07:57;;;;;;;5.18;3.95;;;;;;;24.84;50.41;95575.00;5034497;28;20236;-77
2023/08/13 10:10:23;;;;;;;6.07;3.83;;;;;;;25.25;50.84;95575.63;5026772;28;20232;-77
2023/08/13 10:12:49;;;;;;;6.82;4.25;;;;;;;25.23;50.57;95575.94;5041075;28;20221;-75
2023/08/13 10:15:14;;;;;;;4.50;3.80;;;;;;;25.32;51.54;95570.78;5044932;28;20223;-77
2023/08/13 10:17:42;;;;;;;6.43;4.00;;;;;;;25.20;51.35;95568.44;5047235;28;20224;-70
2023/08/13 10:20:08;;;;;;;6.53;4.10;;;;;;;25.12;51.67;95568.22;5011717;28;20301;-71
2023/08/13 10:22:38;;;;;;;5.00;3.97;;;;;;;25.09;52.65;95572.25;5041363;28;20230;-71
2023/08/13 10:25:06;;;;;;;4.07;3.67;;;;;;;25.07;53.37;95573.59;5028921;28;20746;-72
2023/08/13 10:27:34;;;;;;;8.55;4.18;;;;;;;24.99;53.38;95568.78;5052273;28;20228;-71
2023/08/13 10:30:18;;;;;;;5.65;4.07;;;;;;;24.99;53.56;95566.91;5026779;28;20257;-72
2023/08/13 10:33:03;;;;;;;6.40;4.20;;;;;;;24.98;52.92;95565.28;5050786;28;20282;-70
2023/08/13 10:35:34;;;;;;;4.95;3.70;;;;;;;25.10;51.36;95565.78;5041404;28;20227;-71
2023/08/13 10:38:02;;;;;;;6.95;4.07;;;;;;;25.08;51.33;95565.25;5003353;28;20246;-71
2023/08/13 10:40:27;;;;;;;5.35;4.15;;;;;;;25.06;51.60;95563.94;5016439;28;20804;-71
2023/08/13 10:42:54;;;;;;;7.70;4.20;;;;;;;25.06;52.30;95566.63;5023509;28;20379;-77
2023/08/13 10:45:21;;;;;;;8.63;4.20;;;;;;;25.03;49.98;95559.91;5026285;28;20221;-78
2023/08/13 10:47:51;;;;;;;6.57;4.28;;;;;;;24.98;50.53;95562.63;5008732;28;20221;-77
2023/08/13 10:50:28;;;;;;;5.30;4.10;;;;;;;24.92;51.75;95553.00;5048329;28;20316;-76
2023/08/13 10:53:04;;;;;;;10.23;4.38;;;;;;;24.96;51.69;95567.44;5060223;28;20235;-78
2023/08/13 10:55:36;;;;;;;7.20;4.20;;;;;;;25.02;51.28;95560.22;5012944;28;20370;-76
2023/08/13 10:58:01;;;;;;;4.75;4.07;;;;;;;25.10;51.75;95567.69;5033265;28;20225;-78
2023/08/13 11:00:27;;;;;;;7.15;4.07;;;;;;;25.25;50.82;95548.84;5035104;28;20217;-76
2023/08/13 11:02:54;;;;;;;6.32;4.28;;;;;;;25.56;51.11;95557.53;5026256;28;20253;-77
2023/08/13 11:05:22;;;;;;;5.63;4.32;;;;;;;26.03;50.80;95547.81;5029295;28;20248;-76
2023/08/13 11:07:48;;;;;;;5.90;4.40;;;;;;;26.34;50.40;95551.09;5028605;28;20292;-75
2023/08/13 11:10:20;;;;;;;6.15;4.30;;;;;;;26.53;48.22;95562.69;5054736;28;20975;-76
2023/08/13 11:12:46;;;;;;;5.75;4.15;;;;;;;26.57;48.72;95554.88;5017429;28;20235;-76
2023/08/13 11:15:12;;;;;;;5.00;4.40;;;;;;;26.36;48.43;95558.84;5055906;28;20233;-75
2023/08/13 11:17:46;;;;;;;6.63;4.43;;;;;;;26.21;47.91;95545.56;5028130;28;20232;-77
2023/08/13 11:20:13;;;;;;;6.32;4.40;;;;;;;26.13;48.43;95543.50;5013872;28;20250;-76
2023/08/13 11:22:40;;;;;;;5.40;4.50;;;;;;;26.16;49.50;95545.59;5020934;28;20327;-76
2023/08/13 11:25:05;;;;;;;6.03;4.25;;;;;;;26.34;48.30;95537.66;5023572;28;20232;-77
2023/08/13 11:27:31;;;;;;;5.43;4.60;;;;;;;26.43;49.54;95543.22;5042340;28;20241;-76